Orbital elements of SL-6 DEB
| Launched | 10 September 1981 |
| Flight ended | – |
| Launch site | Plesetsk Missile and Space Complex, Russia |
| Owner | Commonwealth of Independent States (former USSR) |
| NORAD ID | 13904 |
| Date fetched |
Epoch osculation |
Inc. [°] |
Ecc. | RA asc node [hr] |
Arg Peri. [°] |
Mean anom [°] |
Mean motion [rev/day] |
Abs. mag |
| Date fetched |
Epoch osculation |
Inc. [°] |
Ecc. | RA asc node [hr] |
Arg Peri. [°] |
Mean anom [°] |
Mean motion [rev/day] |
Abs. mag |
| 2026 May 08 17:57 | 2026 May 01 10:58:59 | 62.9381 | 0.47788 | 15.4183 | 304.2448 | 19.2634 | 5.48374 | – |
| 2026 May 07 17:58 | 2026 May 01 10:58:59 | 62.9381 | 0.47788 | 15.4183 | 304.2448 | 19.2634 | 5.48374 | – |
| 2026 May 06 17:57 | 2026 May 01 10:58:59 | 62.9381 | 0.47788 | 15.4183 | 304.2448 | 19.2634 | 5.48374 | – |
| 2026 May 05 17:57 | 2026 May 01 10:58:59 | 62.9381 | 0.47788 | 15.4183 | 304.2448 | 19.2634 | 5.48374 | – |
| 2026 May 04 17:57 | 2026 Apr 30 13:06:00 | 62.9382 | 0.47790 | 15.4511 | 304.2259 | 19.2634 | 5.48374 | – |
| 2026 May 03 17:57 | 2026 Apr 30 13:06:00 | 62.9382 | 0.47790 | 15.4511 | 304.2259 | 19.2634 | 5.48374 | – |
| 2026 May 02 17:57 | 2026 Apr 30 13:06:00 | 62.9382 | 0.47790 | 15.4511 | 304.2259 | 19.2634 | 5.48374 | – |
| 2026 May 01 17:56 | 2026 Apr 30 13:06:00 | 62.9382 | 0.47790 | 15.4511 | 304.2259 | 19.2634 | 5.48374 | – |
| 2026 Apr 30 17:56 | 2026 Apr 30 13:06:00 | 62.9382 | 0.47790 | 15.4511 | 304.2259 | 19.2634 | 5.48374 | – |
| 2026 Apr 29 17:57 | 2026 Apr 23 10:24:52 | 62.9399 | 0.47801 | 15.7073 | 304.0757 | 19.2634 | 5.48374 | – |
| 2026 Apr 28 17:56 | 2026 Apr 23 10:24:52 | 62.9399 | 0.47801 | 15.7073 | 304.0757 | 19.2634 | 5.48374 | – |
| 2026 Apr 27 17:58 | 2026 Apr 23 10:24:52 | 62.9399 | 0.47801 | 15.7073 | 304.0757 | 19.2634 | 5.48374 | – |
| 2026 Apr 26 17:58 | 2026 Apr 23 10:24:52 | 62.9399 | 0.47801 | 15.7073 | 304.0757 | 19.2634 | 5.48374 | – |
| 2026 Apr 25 17:58 | 2026 Apr 23 10:24:52 | 62.9399 | 0.47801 | 15.7073 | 304.0757 | 19.2634 | 5.48374 | – |
| 2026 Apr 24 17:59 | 2026 Apr 23 10:24:52 | 62.9399 | 0.47801 | 15.7073 | 304.0757 | 19.2634 | 5.48374 | – |
| 2026 Apr 23 17:57 | 2026 Apr 18 07:52:14 | 62.9445 | 0.47810 | 15.8914 | 303.9661 | 19.2634 | 5.48374 | – |
| 2026 Apr 22 17:57 | 2026 Apr 18 07:52:14 | 62.9445 | 0.47810 | 15.8914 | 303.9661 | 19.2634 | 5.48374 | – |
| 2026 Apr 21 17:57 | 2026 Apr 18 07:52:14 | 62.9445 | 0.47810 | 15.8914 | 303.9661 | 19.2634 | 5.48374 | – |
| 2026 Apr 20 17:57 | 2026 Apr 18 07:52:14 | 62.9445 | 0.47810 | 15.8914 | 303.9661 | 19.2634 | 5.48374 | – |
| 2026 Apr 19 17:58 | 2026 Apr 18 07:52:14 | 62.9445 | 0.47810 | 15.8914 | 303.9661 | 19.2634 | 5.48374 | – |
| 2026 Apr 18 17:56 | 2026 Apr 10 16:03:18 | 62.9445 | 0.47822 | 16.1672 | 303.8104 | 19.2634 | 5.48374 | – |
| 2026 Apr 16 17:57 | 2026 Apr 10 16:03:18 | 62.9445 | 0.47822 | 16.1672 | 303.8104 | 19.2634 | 5.48374 | – |
| 2026 Apr 14 17:57 | 2026 Apr 10 16:03:18 | 62.9445 | 0.47822 | 16.1672 | 303.8104 | 19.2634 | 5.48374 | – |
| 2026 Apr 13 17:57 | 2026 Apr 10 16:03:18 | 62.9445 | 0.47822 | 16.1672 | 303.8104 | 19.2634 | 5.48374 | – |
| 2026 Apr 12 17:57 | 2026 Apr 06 11:23:38 | 62.9467 | 0.47828 | 16.3185 | 303.7231 | 19.2634 | 5.48374 | – |
| 2026 Apr 11 17:57 | 2026 Apr 06 11:23:38 | 62.9467 | 0.47828 | 16.3185 | 303.7231 | 19.2634 | 5.48374 | – |